createdAt,value
2018-07-17T00:00:03.697Z,65.50
2018-07-17T00:02:32.667Z,65.20
2018-07-17T00:05:01.873Z,64.70
2018-07-17T00:07:30.502Z,64.30
2018-07-17T00:09:59.581Z,64.30
2018-07-17T00:14:56.336Z,64.40
2018-07-17T00:17:25.165Z,65.20
2018-07-17T00:19:53.672Z,65.10
2018-07-17T00:22:22.475Z,65.40
2018-07-17T00:24:51.466Z,65.30
2018-07-17T00:27:20.404Z,65.10
2018-07-17T00:29:49.121Z,65.10
2018-07-17T00:32:17.946Z,65.10
2018-07-17T00:34:46.467Z,65.20
2018-07-17T00:37:15.296Z,65.30
2018-07-17T00:39:44.058Z,65.60
2018-07-17T00:42:12.683Z,65.70
2018-07-17T00:44:41.472Z,65.40
2018-07-17T00:47:10.056Z,65.70
2018-07-17T00:49:38.636Z,65.50
2018-07-17T00:52:07.352Z,65.20
2018-07-17T00:54:36.037Z,64.80
2018-07-17T00:57:04.662Z,65.00
2018-07-17T00:59:33.177Z,65.10
2018-07-17T01:02:06.983Z,65.20
2018-07-17T01:04:40.892Z,65.30
2018-07-17T01:07:14.831Z,65.50
2018-07-17T01:09:48.679Z,65.20
2018-07-17T01:12:16.743Z,65.10
2018-07-17T01:14:50.591Z,65.40
2018-07-17T01:17:19.201Z,65.60
2018-07-17T01:19:47.936Z,65.70
2018-07-17T01:22:17.396Z,65.70
2018-07-17T01:24:46.376Z,65.70
2018-07-17T01:27:14.919Z,65.50
2018-07-17T01:29:43.498Z,65.70
2018-07-17T01:32:12.267Z,65.40
2018-07-17T01:34:40.867Z,65.20
2018-07-17T01:37:09.416Z,64.60
2018-07-17T01:39:38.346Z,64.90
2018-07-17T01:42:07.247Z,65.30
2018-07-17T01:44:36.133Z,65.80
2018-07-17T01:47:05.188Z,65.70
2018-07-17T01:49:34.199Z,65.60
2018-07-17T01:52:02.770Z,65.40
2018-07-17T01:56:59.907Z,65.10
2018-07-17T01:59:28.596Z,65.20
2018-07-17T02:01:57.135Z,65.40
2018-07-17T02:04:25.746Z,65.20
2018-07-17T02:06:54.320Z,65.10
2018-07-17T02:09:23.008Z,65.10
2018-07-17T02:11:51.715Z,65.30
2018-07-17T02:14:20.623Z,65.00
2018-07-17T02:19:17.712Z,64.90
2018-07-17T02:21:46.528Z,64.80
2018-07-17T02:24:15.084Z,65.50
2018-07-17T02:26:44.451Z,64.90
2018-07-17T02:29:13.011Z,64.70
2018-07-17T02:31:42.426Z,64.80
2018-07-17T02:34:11.693Z,64.50
2018-07-17T02:36:40.359Z,63.80
2018-07-17T02:39:09.425Z,63.60
2018-07-17T02:41:38.122Z,63.50
2018-07-17T02:44:06.813Z,63.30
2018-07-17T02:49:19.475Z,63.40
2018-07-17T02:51:48.595Z,63.40
2018-07-17T02:54:18.040Z,63.30
2018-07-17T02:56:46.780Z,63.30
2018-07-17T02:59:15.711Z,64.00
2018-07-17T03:04:13.011Z,63.30
2018-07-17T03:06:42.461Z,63.80
2018-07-17T03:09:11.966Z,64.00
2018-07-17T03:11:40.624Z,63.60
2018-07-17T03:14:09.892Z,63.90
2018-07-17T03:16:39.057Z,64.10
2018-07-17T03:19:07.957Z,64.20
2018-07-17T03:21:36.605Z,64.00
2018-07-17T03:24:05.132Z,64.10
2018-07-17T03:26:34.041Z,64.10
2018-07-17T03:31:31.363Z,64.60
2018-07-17T03:34:00.344Z,64.70
2018-07-17T03:36:29.087Z,64.80
2018-07-17T03:38:57.716Z,64.90
2018-07-17T03:41:26.960Z,64.60
2018-07-17T03:43:55.805Z,64.60
2018-07-17T03:46:24.548Z,65.00
2018-07-17T03:48:53.451Z,64.90
2018-07-17T03:53:50.610Z,64.90
2018-07-17T03:56:19.726Z,64.60
2018-07-17T03:58:48.291Z,64.70
2018-07-17T04:01:17.163Z,64.50
2018-07-17T04:03:45.772Z,64.40
2018-07-17T04:06:14.385Z,64.40
2018-07-17T04:08:42.978Z,64.50
2018-07-17T04:11:11.617Z,64.50
2018-07-17T04:13:40.168Z,64.80
2018-07-17T04:16:09.366Z,64.70
2018-07-17T04:18:37.943Z,64.50
2018-07-17T04:21:06.878Z,64.70
2018-07-17T04:23:35.559Z,64.50
2018-07-17T04:26:04.335Z,64.30
2018-07-17T04:28:33.048Z,64.30
2018-07-17T04:31:03.586Z,65.10
2018-07-17T04:33:32.991Z,64.30
2018-07-17T04:36:01.832Z,64.20
2018-07-17T04:38:31.005Z,64.70
2018-07-17T04:40:59.543Z,64.70
2018-07-17T04:43:28.348Z,64.20
2018-07-17T04:45:56.936Z,64.50
2018-07-17T04:48:25.780Z,64.40
2018-07-17T04:50:55.771Z,64.60
2018-07-17T04:53:24.608Z,64.50
2018-07-17T04:55:53.259Z,64.40
2018-07-17T04:58:21.813Z,64.10
2018-07-17T05:00:52.464Z,64.40
2018-07-17T05:03:21.340Z,64.40
2018-07-17T05:05:50.436Z,64.50
2018-07-17T05:08:19.178Z,64.50
2018-07-17T05:10:48.303Z,64.50
2018-07-17T05:13:16.871Z,64.40
2018-07-17T05:15:45.615Z,64.20
2018-07-17T05:18:14.134Z,64.20
2018-07-17T05:23:10.948Z,64.00
2018-07-17T05:25:39.616Z,64.20
2018-07-17T05:28:08.604Z,64.50
2018-07-17T05:30:37.543Z,63.90
2018-07-17T05:33:06.120Z,64.00
2018-07-17T05:35:34.797Z,64.00
2018-07-17T05:38:03.407Z,63.90
2018-07-17T05:40:32.963Z,63.60
2018-07-17T05:43:01.672Z,63.60
2018-07-17T05:45:30.250Z,63.60
2018-07-17T05:47:58.839Z,63.40
2018-07-17T05:50:28.932Z,63.20
2018-07-17T05:52:57.666Z,63.10
2018-07-17T05:55:27.183Z,63.00
2018-07-17T06:00:24.953Z,63.10
2018-07-17T06:02:53.476Z,63.10
2018-07-17T06:05:22.074Z,63.00
2018-07-17T06:07:50.608Z,62.90
2018-07-17T06:12:47.443Z,63.00
2018-07-17T06:15:16.142Z,63.00
2018-07-17T06:17:44.698Z,62.80
2018-07-17T06:20:13.659Z,62.30
2018-07-17T06:22:42.550Z,62.10
2018-07-17T06:25:12.537Z,61.80
2018-07-17T06:27:41.580Z,61.70
2018-07-17T06:30:10.791Z,61.50
2018-07-17T06:32:40.593Z,61.40
2018-07-17T06:35:10.200Z,61.60
2018-07-17T06:37:47.544Z,61.40
2018-07-17T06:40:16.482Z,61.10
2018-07-17T06:42:46.148Z,60.80
2018-07-17T06:45:14.796Z,60.70
2018-07-17T06:47:44.419Z,60.60
2018-07-17T06:50:13.919Z,60.60
2018-07-17T06:52:42.841Z,60.60
2018-07-17T06:55:11.994Z,60.30
2018-07-17T06:57:42.212Z,59.60
2018-07-17T07:00:10.825Z,58.90
2018-07-17T07:02:39.935Z,58.40
2018-07-17T07:05:08.951Z,58.20
2018-07-17T07:07:37.700Z,57.60
2018-07-17T07:10:06.921Z,57.00
2018-07-17T07:12:35.720Z,56.50
2018-07-17T07:15:04.564Z,56.20
2018-07-17T07:17:33.720Z,56.10
2018-07-17T07:20:02.635Z,55.50
2018-07-17T07:22:31.803Z,55.90
2018-07-17T07:25:00.874Z,54.70
2018-07-17T07:27:29.879Z,54.80
2018-07-17T07:30:00.629Z,54.60
2018-07-17T07:34:57.717Z,54.60
2018-07-17T07:37:26.882Z,54.00
2018-07-17T07:39:55.740Z,54.00
2018-07-17T07:42:24.325Z,53.70
2018-07-17T07:44:53.076Z,53.50
2018-07-17T07:47:22.391Z,53.20
2018-07-17T07:49:51.236Z,52.70
2018-07-17T07:52:20.675Z,52.10
2018-07-17T07:54:50.452Z,51.80
2018-07-17T07:57:19.700Z,51.90
2018-07-17T07:59:48.923Z,51.70
2018-07-17T08:02:18.049Z,51.50
2018-07-17T08:04:46.615Z,51.60
2018-07-17T08:07:15.498Z,51.30
2018-07-17T08:09:44.593Z,51.40
2018-07-17T08:12:13.212Z,51.40
2018-07-17T08:14:42.325Z,51.10
2018-07-17T08:17:11.401Z,51.10
2018-07-17T08:19:41.140Z,51.00
2018-07-17T08:22:10.673Z,50.70
2018-07-17T08:24:39.953Z,51.00
2018-07-17T08:27:08.917Z,50.70
2018-07-17T08:29:38.073Z,51.00
2018-07-17T08:32:07.190Z,51.20
2018-07-17T08:34:36.850Z,51.20
2018-07-17T08:37:05.548Z,51.00
2018-07-17T08:39:35.095Z,50.80
2018-07-17T08:42:04.126Z,51.00
2018-07-17T08:44:33.181Z,50.20
2018-07-17T08:47:03.084Z,50.50
2018-07-17T08:52:00.207Z,50.50
2018-07-17T08:54:29.101Z,50.50
2018-07-17T08:56:57.985Z,50.10
2018-07-17T08:59:28.067Z,50.40
2018-07-17T09:04:25.790Z,50.80
2018-07-17T09:06:55.344Z,51.10
2018-07-17T09:09:24.172Z,51.00
2018-07-17T09:11:52.783Z,50.90
2018-07-17T09:14:22.428Z,50.90
2018-07-17T09:16:51.320Z,50.90
2018-07-17T09:21:49.968Z,50.30
2018-07-17T09:24:19.389Z,50.30
2018-07-17T09:26:48.379Z,49.90
2018-07-17T09:29:17.263Z,49.80
2018-07-17T09:31:46.828Z,49.80
2018-07-17T09:34:16.166Z,50.10
2018-07-17T09:36:45.070Z,50.10
2018-07-17T09:39:13.941Z,49.80
2018-07-17T09:41:44.091Z,48.40
2018-07-17T09:44:13.751Z,49.50
2018-07-17T09:46:42.772Z,49.90
2018-07-17T09:49:12.618Z,49.40
2018-07-17T09:51:41.658Z,49.50
2018-07-17T09:54:11.260Z,47.50
2018-07-17T09:56:40.236Z,48.30
2018-07-17T09:59:09.399Z,49.00
2018-07-17T10:01:43.896Z,48.60
2018-07-17T10:04:12.740Z,49.40
2018-07-17T10:06:41.843Z,48.20
2018-07-17T10:09:11.311Z,47.30
2018-07-17T10:11:39.941Z,47.60
2018-07-17T10:14:09.581Z,47.30
2018-07-17T10:16:38.183Z,47.80
2018-07-17T10:19:07.018Z,47.30
2018-07-17T10:21:36.320Z,47.10
2018-07-17T10:24:05.480Z,47.30
2018-07-17T10:26:34.293Z,46.60
2018-07-17T10:29:03.007Z,47.20
2018-07-17T10:31:32.225Z,48.20
2018-07-17T10:34:01.152Z,46.50
2018-07-17T10:36:29.771Z,47.20
2018-07-17T10:38:58.417Z,47.60
2018-07-17T10:41:27.297Z,45.90
2018-07-17T10:43:55.962Z,46.20
2018-07-17T10:46:26.191Z,46.60
2018-07-17T10:48:54.807Z,46.20
2018-07-17T10:51:23.680Z,46.90
2018-07-17T10:53:52.377Z,44.90
2018-07-17T10:56:21.144Z,46.50
2018-07-17T10:58:49.742Z,44.20
2018-07-17T11:01:18.972Z,43.70
2018-07-17T11:03:48.010Z,41.20
2018-07-17T11:06:16.754Z,40.60
2018-07-17T11:08:45.952Z,42.40
2018-07-17T11:11:15.098Z,42.00
2018-07-17T11:13:44.506Z,39.80
2018-07-17T11:16:13.163Z,41.00
2018-07-17T11:18:42.007Z,41.00
2018-07-17T11:21:13.017Z,41.60
2018-07-17T11:23:41.731Z,39.70
2018-07-17T11:26:10.432Z,40.00
2018-07-17T11:28:39.014Z,39.50
2018-07-17T11:31:07.896Z,39.50
2018-07-17T11:33:36.757Z,38.90
2018-07-17T11:36:05.810Z,38.40
2018-07-17T11:38:34.503Z,37.30
2018-07-17T11:41:03.427Z,40.50
2018-07-17T11:43:32.333Z,39.30
2018-07-17T11:46:01.762Z,36.90
2018-07-17T11:48:30.618Z,38.70
2018-07-17T11:50:59.468Z,38.50
2018-07-17T11:53:28.485Z,40.00
2018-07-17T11:55:57.183Z,40.50
2018-07-17T11:58:26.174Z,40.80
2018-07-17T12:00:54.958Z,40.20
2018-07-17T12:03:23.901Z,39.10
2018-07-17T12:05:53.002Z,37.60
2018-07-17T12:08:24.094Z,38.20
2018-07-17T12:10:53.417Z,39.40
2018-07-17T12:13:22.359Z,37.30
2018-07-17T12:15:51.028Z,37.40
2018-07-17T12:18:20.294Z,39.00
2018-07-17T12:20:49.069Z,39.50
2018-07-17T12:23:18.472Z,37.70
2018-07-17T12:25:47.119Z,36.70
2018-07-17T12:28:16.166Z,37.50
2018-07-17T12:30:45.177Z,35.40
2018-07-17T12:33:14.357Z,35.60
2018-07-17T12:35:43.112Z,35.80
2018-07-17T12:38:12.986Z,35.10
2018-07-17T12:43:10.808Z,36.90
2018-07-17T12:45:39.747Z,37.10
2018-07-17T12:48:11.570Z,37.70
2018-07-17T12:50:40.984Z,36.90
2018-07-17T12:53:10.385Z,37.00
2018-07-17T12:55:39.519Z,38.00
2018-07-17T12:58:08.372Z,36.70
2018-07-17T13:00:37.331Z,36.70
2018-07-17T13:03:06.979Z,35.50
2018-07-17T13:05:35.920Z,36.00
2018-07-17T13:08:04.756Z,38.30
2018-07-17T13:10:33.707Z,37.00
2018-07-17T13:13:02.930Z,37.70
2018-07-17T13:15:31.977Z,36.40
2018-07-17T13:18:00.817Z,36.40
2018-07-17T13:20:29.566Z,36.60
2018-07-17T13:22:59.045Z,37.60
2018-07-17T13:25:27.886Z,38.30
2018-07-17T13:27:56.732Z,37.20
2018-07-17T13:30:26.172Z,37.80
2018-07-17T13:32:57.117Z,37.20
2018-07-17T13:35:26.054Z,36.60
2018-07-17T13:37:56.750Z,36.00
2018-07-17T13:40:26.345Z,35.50
2018-07-17T13:42:55.615Z,35.50
2018-07-17T13:45:24.647Z,36.60
2018-07-17T13:47:55.788Z,36.70
2018-07-17T13:50:25.134Z,34.30
2018-07-17T13:52:53.775Z,34.00
2018-07-17T13:55:22.378Z,34.60
2018-07-17T13:57:51.693Z,34.20
2018-07-17T14:00:21.227Z,33.20
2018-07-17T14:02:50.296Z,33.90
2018-07-17T14:05:19.877Z,35.10
2018-07-17T14:07:49.597Z,34.50
2018-07-17T14:10:18.788Z,35.60
2018-07-17T14:12:47.699Z,36.00
2018-07-17T14:15:16.799Z,37.40
2018-07-17T14:17:46.552Z,38.20
2018-07-17T14:20:16.564Z,37.90
2018-07-17T14:22:45.517Z,36.60
2018-07-17T14:25:14.107Z,37.90
2018-07-17T14:27:43.120Z,36.50
2018-07-17T14:30:12.984Z,36.20
2018-07-17T14:32:41.696Z,36.50
2018-07-17T14:35:10.490Z,37.20
2018-07-17T14:37:39.194Z,38.80
2018-07-17T14:40:08.184Z,39.20
2018-07-17T14:42:37.663Z,38.40
2018-07-17T14:45:07.343Z,39.40
2018-07-17T14:50:05.153Z,37.50
2018-07-17T14:52:34.877Z,36.90
2018-07-17T14:55:04.072Z,35.90
2018-07-17T14:57:32.660Z,35.70
2018-07-17T15:00:01.682Z,38.00
2018-07-17T15:02:31.558Z,37.60
2018-07-17T15:05:01.067Z,37.30
2018-07-17T15:07:30.692Z,38.00
2018-07-17T15:09:59.930Z,37.60
2018-07-17T15:12:30.815Z,37.30
2018-07-17T15:15:00.951Z,37.80
2018-07-17T15:17:30.155Z,38.50
2018-07-17T15:19:59.453Z,39.30
2018-07-17T15:22:28.395Z,39.60
2018-07-17T15:24:59.403Z,40.20
2018-07-17T15:27:28.744Z,40.50
2018-07-17T15:29:57.791Z,40.10
2018-07-17T15:32:26.987Z,40.00
2018-07-17T15:34:56.230Z,40.80
2018-07-17T15:37:25.738Z,41.70
2018-07-17T15:39:54.454Z,42.10
2018-07-17T15:42:24.411Z,42.30
2018-07-17T15:44:53.551Z,42.10
2018-07-17T15:47:22.536Z,42.00
2018-07-17T15:49:51.823Z,41.60
2018-07-17T15:52:20.969Z,40.90
2018-07-17T15:54:49.946Z,40.90
2018-07-17T15:57:18.945Z,41.60
2018-07-17T15:59:49.015Z,41.90
2018-07-17T16:02:17.674Z,41.60
2018-07-17T16:04:46.719Z,41.00
2018-07-17T16:07:15.855Z,42.10
2018-07-17T16:09:45.096Z,43.30
2018-07-17T16:14:43.671Z,44.40
2018-07-17T16:17:12.664Z,44.60
2018-07-17T16:19:41.586Z,45.10
2018-07-17T16:22:10.408Z,45.20
2018-07-17T16:24:39.097Z,44.90
2018-07-17T16:27:08.392Z,44.90
2018-07-17T16:29:36.922Z,45.20
2018-07-17T16:32:06.900Z,45.70
2018-07-17T16:34:36.351Z,44.30
2018-07-17T16:37:05.028Z,45.10
2018-07-17T16:39:33.752Z,45.20
2018-07-17T16:42:02.631Z,45.50
2018-07-17T16:44:31.262Z,44.60
2018-07-17T16:46:59.865Z,43.60
2018-07-17T16:49:28.482Z,43.30
2018-07-17T16:51:57.350Z,43.60
2018-07-17T16:54:26.184Z,44.30
2018-07-17T16:56:55.234Z,43.60
2018-07-17T16:59:24.077Z,42.70
2018-07-17T17:01:53.219Z,44.20
2018-07-17T17:04:22.372Z,43.60
2018-07-17T17:06:50.932Z,44.10
2018-07-17T17:09:19.654Z,44.20
2018-07-17T17:11:48.884Z,44.60
2018-07-17T17:14:17.664Z,45.20
2018-07-17T17:16:46.331Z,43.70
2018-07-17T17:19:14.915Z,43.60
2018-07-17T17:21:43.931Z,43.60
2018-07-17T17:24:12.834Z,43.70
2018-07-17T17:26:41.533Z,44.30
2018-07-17T17:29:10.504Z,44.80
2018-07-17T17:31:39.526Z,44.20
2018-07-17T17:34:08.101Z,44.20
2018-07-17T17:36:37.079Z,44.40
2018-07-17T17:41:36.499Z,45.40
2018-07-17T17:44:06.752Z,45.90
2018-07-17T17:46:35.417Z,46.20
2018-07-17T17:49:04.254Z,45.00
2018-07-17T17:51:32.926Z,45.80
2018-07-17T17:54:02.241Z,45.50
2018-07-17T17:56:31.254Z,45.60
2018-07-17T17:59:00.589Z,45.20
2018-07-17T18:01:29.378Z,45.40
2018-07-17T18:03:58.643Z,46.10
2018-07-17T18:06:27.635Z,45.10
2018-07-17T18:08:56.744Z,45.00
2018-07-17T18:11:25.929Z,44.90
2018-07-17T18:13:54.621Z,45.50
2018-07-17T18:16:23.649Z,45.30
2018-07-17T18:18:52.542Z,46.10
2018-07-17T18:21:21.192Z,46.10
2018-07-17T18:23:49.879Z,45.70
2018-07-17T18:26:19.054Z,46.60
2018-07-17T18:28:47.815Z,46.60
2018-07-17T18:31:17.216Z,46.50
2018-07-17T18:33:46.145Z,46.50
2018-07-17T18:36:15.107Z,46.90
2018-07-17T18:38:43.833Z,47.10
2018-07-17T18:41:12.436Z,47.50
2018-07-17T18:43:42.068Z,47.90
2018-07-17T18:48:42.984Z,48.20
2018-07-17T18:51:12.543Z,48.60
2018-07-17T18:53:41.351Z,48.60
2018-07-17T18:56:10.335Z,48.90
2018-07-17T18:58:38.934Z,49.10
2018-07-17T19:01:07.594Z,49.30
2018-07-17T19:03:36.835Z,49.60
2018-07-17T19:06:06.504Z,49.70
2018-07-17T19:08:35.715Z,49.80
2018-07-17T19:11:05.006Z,50.00
2018-07-17T19:13:33.608Z,50.20
2018-07-17T19:16:02.230Z,50.30
2018-07-17T19:18:31.164Z,50.40
2018-07-17T19:20:59.797Z,50.60
2018-07-17T19:23:28.719Z,50.60
2018-07-17T19:28:25.828Z,51.20
2018-07-17T19:30:54.564Z,51.30
2018-07-17T19:33:23.136Z,51.50
2018-07-17T19:35:52.184Z,51.70
2018-07-17T19:38:20.843Z,51.80
2018-07-17T19:40:49.489Z,51.70
2018-07-17T19:43:18.243Z,51.80
2018-07-17T19:45:47.207Z,52.20
2018-07-17T19:50:44.708Z,52.20
2018-07-17T19:53:13.519Z,52.20
2018-07-17T19:55:42.226Z,52.50
2018-07-17T19:58:10.955Z,52.50
2018-07-17T20:00:39.919Z,52.40
2018-07-17T20:03:08.953Z,52.40
2018-07-17T20:05:38.096Z,52.30
2018-07-17T20:08:07.418Z,52.50
2018-07-17T20:10:36.102Z,52.60
2018-07-17T20:13:04.846Z,52.60
2018-07-17T20:15:34.067Z,52.50
2018-07-17T20:18:04.271Z,52.40
2018-07-17T20:20:33.755Z,52.50
2018-07-17T20:23:02.668Z,52.80
2018-07-17T20:25:31.653Z,53.00
2018-07-17T20:28:00.437Z,52.70
2018-07-17T20:30:29.747Z,52.00
2018-07-17T20:32:58.667Z,52.30
2018-07-17T20:35:27.462Z,52.20
2018-07-17T20:37:56.563Z,51.90
2018-07-17T20:40:25.726Z,51.40
2018-07-17T20:42:54.643Z,51.70
2018-07-17T20:45:23.346Z,52.30
2018-07-17T20:47:52.380Z,52.20
2018-07-17T20:50:22.382Z,51.20
2018-07-17T20:52:51.493Z,51.20
2018-07-17T20:55:20.630Z,51.00
2018-07-17T20:57:49.725Z,50.80
2018-07-17T21:00:18.292Z,50.70
2018-07-17T21:02:47.182Z,50.70
2018-07-17T21:05:15.827Z,51.00
2018-07-17T21:07:44.414Z,51.50
2018-07-17T21:10:13.015Z,50.70
2018-07-17T21:12:42.005Z,50.60
2018-07-17T21:15:10.572Z,51.00
2018-07-17T21:17:39.374Z,51.00
2018-07-17T21:20:08.059Z,51.50
2018-07-17T21:22:36.679Z,51.80
2018-07-17T21:25:05.841Z,51.90
2018-07-17T21:27:34.525Z,52.00
2018-07-17T21:30:03.423Z,51.60
2018-07-17T21:32:32.077Z,51.60
2018-07-17T21:35:01.734Z,51.60
2018-07-17T21:37:30.701Z,51.30
2018-07-17T21:39:59.436Z,51.00
2018-07-17T21:42:28.764Z,51.10
2018-07-17T21:44:57.683Z,51.10
2018-07-17T21:47:26.414Z,51.20
2018-07-17T21:49:55.577Z,51.30
2018-07-17T21:52:24.426Z,51.90
2018-07-17T21:54:53.420Z,51.90
2018-07-17T21:57:21.956Z,52.10
2018-07-17T21:59:51.097Z,52.40
2018-07-17T22:02:19.663Z,52.20
2018-07-17T22:04:48.198Z,52.00
2018-07-17T22:07:16.859Z,52.00
2018-07-17T22:09:45.392Z,52.40
2018-07-17T22:12:13.988Z,52.60
2018-07-17T22:14:42.694Z,52.30
2018-07-17T22:17:11.385Z,52.60
2018-07-17T22:19:40.149Z,52.80
2018-07-17T22:22:09.230Z,53.00
2018-07-17T22:24:37.966Z,53.30
2018-07-17T22:27:06.657Z,53.50
2018-07-17T22:29:35.458Z,53.50
2018-07-17T22:32:04.440Z,53.50
2018-07-17T22:34:33.024Z,53.40
2018-07-17T22:37:01.963Z,52.50
2018-07-17T22:39:30.716Z,52.60
2018-07-17T22:41:59.337Z,52.40
2018-07-17T22:44:28.330Z,52.90
2018-07-17T22:46:57.322Z,53.00
2018-07-17T22:49:26.235Z,53.00
2018-07-17T22:51:55.610Z,52.80
2018-07-17T22:54:24.403Z,52.70
2018-07-17T22:56:53.393Z,52.80
2018-07-17T22:59:22.209Z,53.00
2018-07-17T23:01:50.876Z,53.20
2018-07-17T23:04:19.883Z,53.50
2018-07-17T23:06:48.717Z,53.10
2018-07-17T23:09:19.202Z,53.50
2018-07-17T23:11:48.215Z,53.80
2018-07-17T23:14:16.881Z,54.30
2018-07-17T23:16:45.510Z,54.50
2018-07-17T23:19:14.145Z,54.60
2018-07-17T23:21:42.758Z,54.90
2018-07-17T23:24:11.397Z,55.60
2018-07-17T23:26:40.188Z,55.10
2018-07-17T23:29:10.020Z,55.30
2018-07-17T23:31:38.716Z,55.40
2018-07-17T23:34:09.131Z,55.40
2018-07-17T23:36:37.873Z,55.40
2018-07-17T23:39:09.117Z,55.60
2018-07-17T23:41:37.942Z,55.80
2018-07-17T23:44:07.832Z,55.80
2018-07-17T23:46:37.286Z,55.80
2018-07-17T23:49:06.162Z,55.60
2018-07-17T23:51:36.117Z,55.60
2018-07-17T23:54:05.576Z,55.40
2018-07-17T23:56:34.947Z,55.30
2018-07-17T23:59:03.556Z,55.80
